sensor_id;sensor_type;location;lat;lon;timestamp;temperature;humidity
12817;DHT22;6473;51.552;6.716;2023-11-21T00:01:57;6.40;99.90
12817;DHT22;6473;51.552;6.716;2023-11-21T00:04:24;6.50;99.90
12817;DHT22;6473;51.552;6.716;2023-11-21T00:06:55;6.60;99.90
12817;DHT22;6473;51.552;6.716;2023-11-21T00:09:23;7.90;99.90
12817;DHT22;6473;51.552;6.716;2023-11-21T00:11:51;6.60;99.90
12817;DHT22;6473;51.552;6.716;2023-11-21T00:14:17;6.50;99.90
12817;DHT22;6473;51.552;6.716;2023-11-21T00:16:44;6.50;99.90
12817;DHT22;6473;51.552;6.716;2023-11-21T00:19:11;6.60;99.90
12817;DHT22;6473;51.552;6.716;2023-11-21T00:21:39;6.60;99.90
12817;DHT22;6473;51.552;6.716;2023-11-21T00:24:06;6.60;99.90
12817;DHT22;6473;51.552;6.716;2023-11-21T00:26:34;6.60;99.90
12817;DHT22;6473;51.552;6.716;2023-11-21T00:29:03;6.60;99.90
12817;DHT22;6473;51.552;6.716;2023-11-21T00:31:33;8.00;99.90
12817;DHT22;6473;51.552;6.716;2023-11-21T00:34:03;8.50;99.90
12817;DHT22;6473;51.552;6.716;2023-11-21T00:36:30;8.10;99.90
12817;DHT22;6473;51.552;6.716;2023-11-21T00:38:57;6.80;99.90
12817;DHT22;6473;51.552;6.716;2023-11-21T00:41:24;6.80;99.90
12817;DHT22;6473;51.552;6.716;2023-11-21T00:43:54;6.70;99.90
12817;DHT22;6473;51.552;6.716;2023-11-21T00:46:21;6.80;99.90
12817;DHT22;6473;51.552;6.716;2023-11-21T00:48:52;7.30;99.90
12817;DHT22;6473;51.552;6.716;2023-11-21T00:51:27;6.80;99.90
12817;DHT22;6473;51.552;6.716;2023-11-21T00:53:54;6.90;99.90
12817;DHT22;6473;51.552;6.716;2023-11-21T00:56:21;6.90;99.90
12817;DHT22;6473;51.552;6.716;2023-11-21T00:58:48;8.90;99.90
12817;DHT22;6473;51.552;6.716;2023-11-21T01:05:21;6.90;99.90
12817;DHT22;6473;51.552;6.716;2023-11-21T01:07:48;7.00;99.90
12817;DHT22;6473;51.552;6.716;2023-11-21T01:10:17;7.10;99.90
12817;DHT22;6473;51.552;6.716;2023-11-21T01:12:44;7.10;99.90
12817;DHT22;6473;51.552;6.716;2023-11-21T01:15:10;7.10;99.90
12817;DHT22;6473;51.552;6.716;2023-11-21T01:17:38;7.10;99.90
12817;DHT22;6473;51.552;6.716;2023-11-21T01:20:23;7.10;99.90
12817;DHT22;6473;51.552;6.716;2023-11-21T01:22:50;8.40;99.90
12817;DHT22;6473;51.552;6.716;2023-11-21T01:25:17;7.30;99.90
12817;DHT22;6473;51.552;6.716;2023-11-21T01:27:44;7.40;99.90
12817;DHT22;6473;51.552;6.716;2023-11-21T01:30:11;9.50;99.90
12817;DHT22;6473;51.552;6.716;2023-11-21T01:32:38;7.40;99.90
12817;DHT22;6473;51.552;6.716;2023-11-21T01:35:06;7.40;99.90
12817;DHT22;6473;51.552;6.716;2023-11-21T01:37:37;7.40;99.90
12817;DHT22;6473;51.552;6.716;2023-11-21T01:40:04;7.50;99.90
12817;DHT22;6473;51.552;6.716;2023-11-21T01:42:35;7.50;99.90
12817;DHT22;6473;51.552;6.716;2023-11-21T01:45:02;7.50;99.90
12817;DHT22;6473;51.552;6.716;2023-11-21T01:47:30;7.50;99.90
12817;DHT22;6473;51.552;6.716;2023-11-21T01:49:58;7.50;99.90
12817;DHT22;6473;51.552;6.716;2023-11-21T01:52:26;7.70;99.90
12817;DHT22;6473;51.552;6.716;2023-11-21T01:54:58;7.50;99.90
12817;DHT22;6473;51.552;6.716;2023-11-21T01:57:26;7.60;99.90
12817;DHT22;6473;51.552;6.716;2023-11-21T01:59:54;7.70;99.90
12817;DHT22;6473;51.552;6.716;2023-11-21T02:02:21;7.70;99.90
12817;DHT22;6473;51.552;6.716;2023-11-21T02:04:48;7.70;99.90
12817;DHT22;6473;51.552;6.716;2023-11-21T02:07:15;7.70;99.90
12817;DHT22;6473;51.552;6.716;2023-11-21T02:09:44;7.60;99.90
12817;DHT22;6473;51.552;6.716;2023-11-21T02:12:13;9.90;99.90
12817;DHT22;6473;51.552;6.716;2023-11-21T02:14:41;7.70;99.90
12817;DHT22;6473;51.552;6.716;2023-11-21T02:17:09;9.00;99.90
12817;DHT22;6473;51.552;6.716;2023-11-21T02:22:36;7.60;99.90
12817;DHT22;6473;51.552;6.716;2023-11-21T02:25:08;7.70;99.90
12817;DHT22;6473;51.552;6.716;2023-11-21T02:27:35;7.60;99.90
12817;DHT22;6473;51.552;6.716;2023-11-21T02:30:03;7.60;99.90
12817;DHT22;6473;51.552;6.716;2023-11-21T02:32:31;7.60;99.90
12817;DHT22;6473;51.552;6.716;2023-11-21T02:34:58;7.60;99.90
12817;DHT22;6473;51.552;6.716;2023-11-21T02:37:28;8.10;99.90
12817;DHT22;6473;51.552;6.716;2023-11-21T02:39:55;7.60;99.90
12817;DHT22;6473;51.552;6.716;2023-11-21T02:42:23;7.60;99.90
12817;DHT22;6473;51.552;6.716;2023-11-21T02:44:50;7.60;99.90
12817;DHT22;6473;51.552;6.716;2023-11-21T02:47:16;7.60;99.90
12817;DHT22;6473;51.552;6.716;2023-11-21T02:49:43;8.00;99.90
12817;DHT22;6473;51.552;6.716;2023-11-21T02:52:16;9.30;99.90
12817;DHT22;6473;51.552;6.716;2023-11-21T02:54:43;7.60;99.90
12817;DHT22;6473;51.552;6.716;2023-11-21T02:57:10;7.70;99.90
12817;DHT22;6473;51.552;6.716;2023-11-21T02:59:38;7.70;99.90
12817;DHT22;6473;51.552;6.716;2023-11-21T03:02:05;7.70;99.90
12817;DHT22;6473;51.552;6.716;2023-11-21T03:04:34;7.70;99.90
12817;DHT22;6473;51.552;6.716;2023-11-21T03:07:01;7.70;99.90
12817;DHT22;6473;51.552;6.716;2023-11-21T03:09:28;7.70;99.90
12817;DHT22;6473;51.552;6.716;2023-11-21T03:11:55;7.70;99.90
12817;DHT22;6473;51.552;6.716;2023-11-21T03:14:31;7.70;99.90
12817;DHT22;6473;51.552;6.716;2023-11-21T03:17:00;7.70;99.90
12817;DHT22;6473;51.552;6.716;2023-11-21T03:19:28;7.70;99.90
12817;DHT22;6473;51.552;6.716;2023-11-21T03:21:55;7.80;99.90
12817;DHT22;6473;51.552;6.716;2023-11-21T03:24:23;7.90;99.90
12817;DHT22;6473;51.552;6.716;2023-11-21T03:26:50;7.80;99.90
12817;DHT22;6473;51.552;6.716;2023-11-21T03:29:17;7.80;99.90
12817;DHT22;6473;51.552;6.716;2023-11-21T03:31:44;7.70;99.90
12817;DHT22;6473;51.552;6.716;2023-11-21T03:34:15;7.70;99.90
12817;DHT22;6473;51.552;6.716;2023-11-21T03:36:43;10.00;99.90
12817;DHT22;6473;51.552;6.716;2023-11-21T03:39:12;9.30;99.90
12817;DHT22;6473;51.552;6.716;2023-11-21T03:41:39;7.80;99.90
12817;DHT22;6473;51.552;6.716;2023-11-21T03:44:06;7.80;99.90
12817;DHT22;6473;51.552;6.716;2023-11-21T03:46:33;7.80;99.90
12817;DHT22;6473;51.552;6.716;2023-11-21T03:48:59;7.80;99.90
12817;DHT22;6473;51.552;6.716;2023-11-21T03:51:28;7.90;99.90
12817;DHT22;6473;51.552;6.716;2023-11-21T03:53:55;7.90;99.90
12817;DHT22;6473;51.552;6.716;2023-11-21T03:56:21;8.50;99.90
12817;DHT22;6473;51.552;6.716;2023-11-21T03:58:48;7.90;99.90
12817;DHT22;6473;51.552;6.716;2023-11-21T04:01:20;7.90;99.90
12817;DHT22;6473;51.552;6.716;2023-11-21T04:03:48;7.90;99.90
12817;DHT22;6473;51.552;6.716;2023-11-21T04:06:15;8.60;99.90
12817;DHT22;6473;51.552;6.716;2023-11-21T04:08:44;7.80;99.90
12817;DHT22;6473;51.552;6.716;2023-11-21T04:11:11;7.80;99.90
12817;DHT22;6473;51.552;6.716;2023-11-21T04:13:38;7.80;99.90
12817;DHT22;6473;51.552;6.716;2023-11-21T04:16:06;7.80;99.90
12817;DHT22;6473;51.552;6.716;2023-11-21T04:18:33;7.80;99.90
12817;DHT22;6473;51.552;6.716;2023-11-21T04:21:06;7.70;99.90
12817;DHT22;6473;51.552;6.716;2023-11-21T04:23:34;7.70;99.90
12817;DHT22;6473;51.552;6.716;2023-11-21T04:26:03;7.70;99.90
12817;DHT22;6473;51.552;6.716;2023-11-21T04:28:30;7.60;99.90
12817;DHT22;6473;51.552;6.716;2023-11-21T04:30:57;9.10;99.90
12817;DHT22;6473;51.552;6.716;2023-11-21T04:33:24;7.70;99.90
12817;DHT22;6473;51.552;6.716;2023-11-21T04:35:51;7.60;99.90
12817;DHT22;6473;51.552;6.716;2023-11-21T04:38:18;7.60;99.90
12817;DHT22;6473;51.552;6.716;2023-11-21T04:40:45;7.60;99.90
12817;DHT22;6473;51.552;6.716;2023-11-21T04:43:13;7.60;99.90
12817;DHT22;6473;51.552;6.716;2023-11-21T04:45:40;7.60;99.90
12817;DHT22;6473;51.552;6.716;2023-11-21T04:48:07;7.60;99.90
12817;DHT22;6473;51.552;6.716;2023-11-21T04:50:34;7.60;99.90
12817;DHT22;6473;51.552;6.716;2023-11-21T04:53:01;7.70;99.90
12817;DHT22;6473;51.552;6.716;2023-11-21T04:55:50;7.70;99.90
12817;DHT22;6473;51.552;6.716;2023-11-21T04:58:19;7.70;99.90
12817;DHT22;6473;51.552;6.716;2023-11-21T05:00:46;7.70;99.90
12817;DHT22;6473;51.552;6.716;2023-11-21T05:03:13;7.70;99.90
12817;DHT22;6473;51.552;6.716;2023-11-21T05:05:40;9.10;99.90
12817;DHT22;6473;51.552;6.716;2023-11-21T05:08:06;7.80;99.90
12817;DHT22;6473;51.552;6.716;2023-11-21T05:10:33;7.80;99.90
12817;DHT22;6473;51.552;6.716;2023-11-21T05:13:03;7.90;99.90
12817;DHT22;6473;51.552;6.716;2023-11-21T05:15:34;7.80;99.90
12817;DHT22;6473;51.552;6.716;2023-11-21T05:18:00;8.00;99.90
12817;DHT22;6473;51.552;6.716;2023-11-21T05:20:28;7.80;99.90
12817;DHT22;6473;51.552;6.716;2023-11-21T05:22:54;7.80;99.90
12817;DHT22;6473;51.552;6.716;2023-11-21T05:25:21;7.90;99.90
12817;DHT22;6473;51.552;6.716;2023-11-21T05:27:48;8.30;99.90
12817;DHT22;6473;51.552;6.716;2023-11-21T05:30:15;7.90;99.90
12817;DHT22;6473;51.552;6.716;2023-11-21T05:32:43;7.90;99.90
12817;DHT22;6473;51.552;6.716;2023-11-21T05:35:12;9.70;99.90
12817;DHT22;6473;51.552;6.716;2023-11-21T05:37:41;8.30;99.90
12817;DHT22;6473;51.552;6.716;2023-11-21T05:40:09;8.60;99.90
12817;DHT22;6473;51.552;6.716;2023-11-21T05:42:36;7.90;99.90
12817;DHT22;6473;51.552;6.716;2023-11-21T05:45:05;9.10;99.90
12817;DHT22;6473;51.552;6.716;2023-11-21T05:47:36;7.90;99.90
12817;DHT22;6473;51.552;6.716;2023-11-21T05:50:06;10.00;99.90
12817;DHT22;6473;51.552;6.716;2023-11-21T05:52:36;7.90;99.90
12817;DHT22;6473;51.552;6.716;2023-11-21T05:55:03;7.90;99.90
12817;DHT22;6473;51.552;6.716;2023-11-21T05:57:33;7.90;99.90
12817;DHT22;6473;51.552;6.716;2023-11-21T06:00:02;7.90;99.90
12817;DHT22;6473;51.552;6.716;2023-11-21T06:02:37;7.90;99.90
12817;DHT22;6473;51.552;6.716;2023-11-21T06:05:06;9.70;99.90
12817;DHT22;6473;51.552;6.716;2023-11-21T06:07:34;7.90;99.90
12817;DHT22;6473;51.552;6.716;2023-11-21T06:10:01;8.00;99.90
12817;DHT22;6473;51.552;6.716;2023-11-21T06:12:31;9.10;99.90
12817;DHT22;6473;51.552;6.716;2023-11-21T06:15:01;9.10;99.90
12817;DHT22;6473;51.552;6.716;2023-11-21T06:24:40;7.80;99.90
12817;DHT22;6473;51.552;6.716;2023-11-21T06:27:08;9.50;99.90
12817;DHT22;6473;51.552;6.716;2023-11-21T06:29:34;7.80;99.90
12817;DHT22;6473;51.552;6.716;2023-11-21T06:32:02;9.40;99.90
12817;DHT22;6473;51.552;6.716;2023-11-21T06:34:30;7.80;99.90
12817;DHT22;6473;51.552;6.716;2023-11-21T06:41:08;7.80;99.90
12817;DHT22;6473;51.552;6.716;2023-11-21T06:43:38;7.90;99.90
12817;DHT22;6473;51.552;6.716;2023-11-21T06:46:05;9.30;99.90
12817;DHT22;6473;51.552;6.716;2023-11-21T06:48:32;7.90;99.90
12817;DHT22;6473;51.552;6.716;2023-11-21T06:50:59;7.90;99.90
12817;DHT22;6473;51.552;6.716;2023-11-21T06:53:26;9.80;99.90
12817;DHT22;6473;51.552;6.716;2023-11-21T06:59:48;7.80;99.90
12817;DHT22;6473;51.552;6.716;2023-11-21T07:06:24;7.70;99.90
12817;DHT22;6473;51.552;6.716;2023-11-21T07:08:51;7.80;99.90
12817;DHT22;6473;51.552;6.716;2023-11-21T07:18:33;7.90;99.90
12817;DHT22;6473;51.552;6.716;2023-11-21T07:21:00;7.90;99.90
12817;DHT22;6473;51.552;6.716;2023-11-21T07:27:28;7.90;99.90
12817;DHT22;6473;51.552;6.716;2023-11-21T07:37:46;8.00;99.90
12817;DHT22;6473;51.552;6.716;2023-11-21T07:51:25;8.00;99.90
12817;DHT22;6473;51.552;6.716;2023-11-21T08:25:10;8.30;99.90
12817;DHT22;6473;51.552;6.716;2023-11-21T08:27:38;8.30;99.90
12817;DHT22;6473;51.552;6.716;2023-11-21T08:30:07;8.40;99.90
12817;DHT22;6473;51.552;6.716;2023-11-21T08:32:34;8.40;99.90
12817;DHT22;6473;51.552;6.716;2023-11-21T08:38:13;8.50;99.90
12817;DHT22;6473;51.552;6.716;2023-11-21T08:40:41;10.30;99.90
12817;DHT22;6473;51.552;6.716;2023-11-21T08:43:08;8.50;99.90
12817;DHT22;6473;51.552;6.716;2023-11-21T08:45:36;8.40;99.90
12817;DHT22;6473;51.552;6.716;2023-11-21T08:48:03;8.40;99.90
12817;DHT22;6473;51.552;6.716;2023-11-21T08:50:37;8.40;99.90
12817;DHT22;6473;51.552;6.716;2023-11-21T08:53:04;8.40;99.90
12817;DHT22;6473;51.552;6.716;2023-11-21T08:55:31;8.40;99.90
12817;DHT22;6473;51.552;6.716;2023-11-21T09:53:31;9.10;99.90
12817;DHT22;6473;51.552;6.716;2023-11-21T09:55:58;9.20;99.90
12817;DHT22;6473;51.552;6.716;2023-11-21T09:58:28;9.20;99.90
12817;DHT22;6473;51.552;6.716;2023-11-21T10:01:08;9.20;99.90
12817;DHT22;6473;51.552;6.716;2023-11-21T10:03:36;9.10;99.90
12817;DHT22;6473;51.552;6.716;2023-11-21T10:06:04;9.30;99.90
12817;DHT22;6473;51.552;6.716;2023-11-21T10:12:37;9.30;99.90
12817;DHT22;6473;51.552;6.716;2023-11-21T10:19:20;9.50;99.90
12817;DHT22;6473;51.552;6.716;2023-11-21T10:21:57;9.50;99.90
12817;DHT22;6473;51.552;6.716;2023-11-21T10:24:26;9.50;99.90
12817;DHT22;6473;51.552;6.716;2023-11-21T10:26:52;9.70;99.90
12817;DHT22;6473;51.552;6.716;2023-11-21T10:29:21;9.80;99.90
12817;DHT22;6473;51.552;6.716;2023-11-21T10:31:49;9.80;99.90
12817;DHT22;6473;51.552;6.716;2023-11-21T10:34:18;9.90;99.90
12817;DHT22;6473;51.552;6.716;2023-11-21T10:36:53;9.90;99.90
12817;DHT22;6473;51.552;6.716;2023-11-21T10:43:33;9.90;99.90
12817;DHT22;6473;51.552;6.716;2023-11-21T10:50:07;9.80;99.90
12817;DHT22;6473;51.552;6.716;2023-11-21T10:56:37;9.90;99.90
12817;DHT22;6473;51.552;6.716;2023-11-21T10:59:10;10.00;99.90
12817;DHT22;6473;51.552;6.716;2023-11-21T11:06:13;9.90;99.90
12817;DHT22;6473;51.552;6.716;2023-11-21T11:12:33;10.00;99.90
12817;DHT22;6473;51.552;6.716;2023-11-21T11:18:52;9.90;99.90
12817;DHT22;6473;51.552;6.716;2023-11-21T11:28:47;10.10;99.90
12817;DHT22;6473;51.552;6.716;2023-11-21T11:31:22;10.30;99.90
12817;DHT22;6473;51.552;6.716;2023-11-21T11:33:55;10.20;99.90
12817;DHT22;6473;51.552;6.716;2023-11-21T11:36:28;10.40;99.90
12817;DHT22;6473;51.552;6.716;2023-11-21T11:39:26;10.20;99.90
12817;DHT22;6473;51.552;6.716;2023-11-21T11:41:53;10.20;99.90
12817;DHT22;6473;51.552;6.716;2023-11-21T11:48:21;10.20;99.90
12817;DHT22;6473;51.552;6.716;2023-11-21T11:58:38;10.40;99.90
12817;DHT22;6473;51.552;6.716;2023-11-21T16:26:06;8.70;99.90
12817;DHT22;6473;51.552;6.716;2023-11-21T16:29:13;8.60;99.90
12817;DHT22;6473;51.552;6.716;2023-11-21T16:31:40;8.50;99.90
12817;DHT22;6473;51.552;6.716;2023-11-21T16:34:11;8.40;99.90
12817;DHT22;6473;51.552;6.716;2023-11-21T16:36:39;9.80;99.90
12817;DHT22;6473;51.552;6.716;2023-11-21T16:39:06;8.30;99.90
12817;DHT22;6473;51.552;6.716;2023-11-21T16:41:35;8.50;99.90
12817;DHT22;6473;51.552;6.716;2023-11-21T16:44:02;8.30;99.90
12817;DHT22;6473;51.552;6.716;2023-11-21T16:46:29;8.20;99.90
12817;DHT22;6473;51.552;6.716;2023-11-21T16:48:56;8.20;99.90
12817;DHT22;6473;51.552;6.716;2023-11-21T16:51:22;8.10;99.90
12817;DHT22;6473;51.552;6.716;2023-11-21T16:53:49;10.20;99.90
12817;DHT22;6473;51.552;6.716;2023-11-21T16:56:20;8.00;99.90
12817;DHT22;6473;51.552;6.716;2023-11-21T16:58:54;8.00;99.90
12817;DHT22;6473;51.552;6.716;2023-11-21T17:01:21;7.90;99.90
12817;DHT22;6473;51.552;6.716;2023-11-21T17:03:50;7.90;99.90
12817;DHT22;6473;51.552;6.716;2023-11-21T17:06:18;9.20;99.90
12817;DHT22;6473;51.552;6.716;2023-11-21T17:08:45;7.80;99.90
12817;DHT22;6473;51.552;6.716;2023-11-21T17:11:11;7.80;99.90
12817;DHT22;6473;51.552;6.716;2023-11-21T17:13:39;7.60;99.90
12817;DHT22;6473;51.552;6.716;2023-11-21T17:16:09;7.50;99.90
12817;DHT22;6473;51.552;6.716;2023-11-21T17:18:36;7.40;99.90
12817;DHT22;6473;51.552;6.716;2023-11-21T17:21:03;7.40;99.90
12817;DHT22;6473;51.552;6.716;2023-11-21T17:23:30;7.30;99.90
12817;DHT22;6473;51.552;6.716;2023-11-21T17:26:01;7.30;99.90
12817;DHT22;6473;51.552;6.716;2023-11-21T17:28:40;6.90;99.90
12817;DHT22;6473;51.552;6.716;2023-11-21T17:31:09;7.20;99.90
12817;DHT22;6473;51.552;6.716;2023-11-21T17:33:36;7.10;99.90
12817;DHT22;6473;51.552;6.716;2023-11-21T17:36:04;7.20;99.90
12817;DHT22;6473;51.552;6.716;2023-11-21T17:38:31;7.20;99.90
12817;DHT22;6473;51.552;6.716;2023-11-21T17:40:58;7.20;99.90
12817;DHT22;6473;51.552;6.716;2023-11-21T17:43:26;7.20;99.90
12817;DHT22;6473;51.552;6.716;2023-11-21T17:46:00;7.20;99.90
12817;DHT22;6473;51.552;6.716;2023-11-21T17:56:12;7.10;99.90
12817;DHT22;6473;51.552;6.716;2023-11-21T18:16:39;7.10;99.90
12817;DHT22;6473;51.552;6.716;2023-11-21T18:19:07;7.10;99.90
12817;DHT22;6473;51.552;6.716;2023-11-21T18:21:41;7.10;99.90
12817;DHT22;6473;51.552;6.716;2023-11-21T18:24:31;7.10;99.90
12817;DHT22;6473;51.552;6.716;2023-11-21T18:26:58;7.10;99.90
12817;DHT22;6473;51.552;6.716;2023-11-21T18:29:25;7.00;99.90
12817;DHT22;6473;51.552;6.716;2023-11-21T18:32:08;7.30;99.90
12817;DHT22;6473;51.552;6.716;2023-11-21T18:34:40;7.00;99.90
12817;DHT22;6473;51.552;6.716;2023-11-21T18:37:30;7.10;99.90
12817;DHT22;6473;51.552;6.716;2023-11-21T18:39:57;7.10;99.90
12817;DHT22;6473;51.552;6.716;2023-11-21T18:42:24;7.10;99.90
12817;DHT22;6473;51.552;6.716;2023-11-21T18:44:57;7.10;99.90
12817;DHT22;6473;51.552;6.716;2023-11-21T18:50:53;7.10;99.90
12817;DHT22;6473;51.552;6.716;2023-11-21T18:53:20;7.10;99.90
12817;DHT22;6473;51.552;6.716;2023-11-21T18:55:48;7.10;99.90
12817;DHT22;6473;51.552;6.716;2023-11-21T18:58:15;7.00;99.90
12817;DHT22;6473;51.552;6.716;2023-11-21T19:00:42;7.10;99.90
12817;DHT22;6473;51.552;6.716;2023-11-21T19:06:20;7.10;99.90
12817;DHT22;6473;51.552;6.716;2023-11-21T19:08:47;7.10;99.90
12817;DHT22;6473;51.552;6.716;2023-11-21T19:11:14;7.10;99.90
12817;DHT22;6473;51.552;6.716;2023-11-21T19:13:41;7.10;99.90
12817;DHT22;6473;51.552;6.716;2023-11-21T19:16:08;7.10;99.90
12817;DHT22;6473;51.552;6.716;2023-11-21T19:18:36;7.10;99.90
12817;DHT22;6473;51.552;6.716;2023-11-21T19:21:04;7.10;99.90
12817;DHT22;6473;51.552;6.716;2023-11-21T19:23:32;7.10;99.90
12817;DHT22;6473;51.552;6.716;2023-11-21T19:25:59;7.10;99.90
12817;DHT22;6473;51.552;6.716;2023-11-21T19:28:26;7.10;99.90
12817;DHT22;6473;51.552;6.716;2023-11-21T19:30:53;9.00;99.90
12817;DHT22;6473;51.552;6.716;2023-11-21T19:33:21;7.10;99.90
12817;DHT22;6473;51.552;6.716;2023-11-21T19:35:50;7.00;99.90
12817;DHT22;6473;51.552;6.716;2023-11-21T19:38:26;7.10;99.90
12817;DHT22;6473;51.552;6.716;2023-11-21T19:44:49;7.10;99.90
12817;DHT22;6473;51.552;6.716;2023-11-21T19:51:03;7.10;99.90
12817;DHT22;6473;51.552;6.716;2023-11-21T19:58:32;7.10;99.90
12817;DHT22;6473;51.552;6.716;2023-11-21T20:05:11;7.10;99.90
12817;DHT22;6473;51.552;6.716;2023-11-21T20:07:40;7.10;99.90
12817;DHT22;6473;51.552;6.716;2023-11-21T20:10:10;8.10;99.90
12817;DHT22;6473;51.552;6.716;2023-11-21T20:12:37;7.10;99.90
12817;DHT22;6473;51.552;6.716;2023-11-21T20:15:05;7.00;99.90
12817;DHT22;6473;51.552;6.716;2023-11-21T20:17:32;7.10;99.90
12817;DHT22;6473;51.552;6.716;2023-11-21T20:20:01;7.10;99.90
12817;DHT22;6473;51.552;6.716;2023-11-21T20:22:38;7.10;99.90
12817;DHT22;6473;51.552;6.716;2023-11-21T20:25:06;7.20;99.90
12817;DHT22;6473;51.552;6.716;2023-11-21T20:27:34;7.10;99.90
12817;DHT22;6473;51.552;6.716;2023-11-21T20:30:05;7.10;99.90
12817;DHT22;6473;51.552;6.716;2023-11-21T20:32:34;7.00;99.90
12817;DHT22;6473;51.552;6.716;2023-11-21T20:35:09;7.10;99.90
12817;DHT22;6473;51.552;6.716;2023-11-21T20:40:39;7.10;99.90
12817;DHT22;6473;51.552;6.716;2023-11-21T20:43:06;7.20;99.90
12817;DHT22;6473;51.552;6.716;2023-11-21T20:45:59;8.00;99.90
12817;DHT22;6473;51.552;6.716;2023-11-21T20:48:38;7.20;99.90
12817;DHT22;6473;51.552;6.716;2023-11-21T20:54:55;7.00;99.90
12817;DHT22;6473;51.552;6.716;2023-11-21T20:57:49;6.90;99.90
12817;DHT22;6473;51.552;6.716;2023-11-21T21:00:18;6.90;99.90
12817;DHT22;6473;51.552;6.716;2023-11-21T21:02:46;6.90;99.90
12817;DHT22;6473;51.552;6.716;2023-11-21T21:05:18;6.80;99.90
12817;DHT22;6473;51.552;6.716;2023-11-21T21:07:46;6.90;99.90
12817;DHT22;6473;51.552;6.716;2023-11-21T21:10:28;6.90;99.90
12817;DHT22;6473;51.552;6.716;2023-11-21T21:12:56;6.90;99.90
12817;DHT22;6473;51.552;6.716;2023-11-21T21:15:23;8.10;99.90
12817;DHT22;6473;51.552;6.716;2023-11-21T21:18:18;6.70;99.90
12817;DHT22;6473;51.552;6.716;2023-11-21T21:21:01;6.70;99.90
12817;DHT22;6473;51.552;6.716;2023-11-21T21:23:28;8.40;99.90
12817;DHT22;6473;51.552;6.716;2023-11-21T21:25:55;6.70;99.90
12817;DHT22;6473;51.552;6.716;2023-11-21T21:28:37;9.20;99.90
12817;DHT22;6473;51.552;6.716;2023-11-21T21:31:04;6.80;99.90
12817;DHT22;6473;51.552;6.716;2023-11-21T21:33:31;6.80;99.90
12817;DHT22;6473;51.552;6.716;2023-11-21T21:36:02;6.80;99.90
12817;DHT22;6473;51.552;6.716;2023-11-21T21:42:17;6.70;99.90
12817;DHT22;6473;51.552;6.716;2023-11-21T21:44:57;6.70;99.90
12817;DHT22;6473;51.552;6.716;2023-11-21T21:47:24;6.70;99.90
12817;DHT22;6473;51.552;6.716;2023-11-21T21:49:51;6.80;99.90
12817;DHT22;6473;51.552;6.716;2023-11-21T21:52:19;6.70;99.90
12817;DHT22;6473;51.552;6.716;2023-11-21T21:54:46;8.20;99.90
12817;DHT22;6473;51.552;6.716;2023-11-21T21:57:15;6.60;99.90
12817;DHT22;6473;51.552;6.716;2023-11-21T21:59:42;6.50;99.90
12817;DHT22;6473;51.552;6.716;2023-11-21T22:02:10;6.60;99.90
12817;DHT22;6473;51.552;6.716;2023-11-21T22:04:37;6.50;99.90
12817;DHT22;6473;51.552;6.716;2023-11-21T22:07:05;6.50;99.90
12817;DHT22;6473;51.552;6.716;2023-11-21T22:09:32;8.80;99.90
12817;DHT22;6473;51.552;6.716;2023-11-21T22:12:00;6.40;99.90
12817;DHT22;6473;51.552;6.716;2023-11-21T22:14:27;6.30;99.90
12817;DHT22;6473;51.552;6.716;2023-11-21T22:16:54;6.20;99.90
12817;DHT22;6473;51.552;6.716;2023-11-21T22:19:22;7.40;99.90
12817;DHT22;6473;51.552;6.716;2023-11-21T22:21:49;6.10;99.90
12817;DHT22;6473;51.552;6.716;2023-11-21T22:24:17;6.00;99.90
12817;DHT22;6473;51.552;6.716;2023-11-21T22:26:44;6.00;99.90
12817;DHT22;6473;51.552;6.716;2023-11-21T22:29:10;6.00;99.90
12817;DHT22;6473;51.552;6.716;2023-11-21T22:31:40;5.90;99.90
12817;DHT22;6473;51.552;6.716;2023-11-21T22:34:07;6.00;99.90
12817;DHT22;6473;51.552;6.716;2023-11-21T22:36:35;6.00;99.90
12817;DHT22;6473;51.552;6.716;2023-11-21T22:39:02;7.00;99.90
12817;DHT22;6473;51.552;6.716;2023-11-21T22:41:31;6.20;99.90
12817;DHT22;6473;51.552;6.716;2023-11-21T22:43:57;6.20;99.90
12817;DHT22;6473;51.552;6.716;2023-11-21T22:46:24;6.20;99.90
12817;DHT22;6473;51.552;6.716;2023-11-21T22:48:51;6.20;99.90
12817;DHT22;6473;51.552;6.716;2023-11-21T22:51:19;6.10;99.90
12817;DHT22;6473;51.552;6.716;2023-11-21T22:53:47;6.10;99.90
12817;DHT22;6473;51.552;6.716;2023-11-21T22:56:14;6.10;99.90
12817;DHT22;6473;51.552;6.716;2023-11-21T22:58:41;6.00;99.90
12817;DHT22;6473;51.552;6.716;2023-11-21T23:12:20;5.70;99.90
12817;DHT22;6473;51.552;6.716;2023-11-21T23:14:47;5.70;99.90
12817;DHT22;6473;51.552;6.716;2023-11-21T23:17:14;6.10;99.90
12817;DHT22;6473;51.552;6.716;2023-11-21T23:19:40;5.80;99.90
12817;DHT22;6473;51.552;6.716;2023-11-21T23:22:07;5.80;99.90
12817;DHT22;6473;51.552;6.716;2023-11-21T23:24:35;6.00;99.90
12817;DHT22;6473;51.552;6.716;2023-11-21T23:27:02;5.90;99.90
12817;DHT22;6473;51.552;6.716;2023-11-21T23:29:32;5.90;99.90
12817;DHT22;6473;51.552;6.716;2023-11-21T23:32:03;6.30;99.90
12817;DHT22;6473;51.552;6.716;2023-11-21T23:34:31;5.90;99.90
12817;DHT22;6473;51.552;6.716;2023-11-21T23:36:58;5.90;99.90
12817;DHT22;6473;51.552;6.716;2023-11-21T23:39:25;5.90;99.90
12817;DHT22;6473;51.552;6.716;2023-11-21T23:41:52;8.60;99.90
12817;DHT22;6473;51.552;6.716;2023-11-21T23:44:40;5.90;99.90
12817;DHT22;6473;51.552;6.716;2023-11-21T23:47:07;5.90;99.90
12817;DHT22;6473;51.552;6.716;2023-11-21T23:49:34;5.90;99.90
12817;DHT22;6473;51.552;6.716;2023-11-21T23:52:02;5.80;99.90
12817;DHT22;6473;51.552;6.716;2023-11-21T23:54:29;5.90;99.90
12817;DHT22;6473;51.552;6.716;2023-11-21T23:56:57;5.90;99.90
12817;DHT22;6473;51.552;6.716;2023-11-21T23:59:24;7.60;99.90
